首页
METAR-TAF:

METAR-TAF

机场 :

高知機場

高知, 日本

纬度: 33-32N, 经度: 133-40E, 海拔: 7米

当前天气观测

该预报发布于37分钟前的10:00 UTC
风速5节,风向西南,在南转西南西之间变化
温度 29°C
湿度 79%
气压 1011 hPa
能见度10公里或以上
少量云层高于1000英尺
散云层高于2000英尺
多云

METAR: RJOK 221000Z 22005KT 200V260 9999 FEW010 SCT020 BKN/// 29/25 Q1011

时间: 19:37 (10:37 UTC)

预报

该预报发布于5小时和31分钟前的05:06 UTC
预报有效从22日的 06点(UTC)到 23日的 12点(UTC)
风速7节,风向
能见度10公里或以上
少量云层高于2000英尺
成为
从 22日的 12点(UTC)到 22日的 14点(UTC)
风速5节,风向
成为
从 22日的 21点(UTC)到 23日的 00点(UTC)
风速5节,风向
短暂存在
从 23日的 06点(UTC)到 23日的 09点(UTC)
少量云层高于2000英尺
少量云层高于2500英尺, 积雨云.
散云层高于4000英尺
雷暴

TAF: RJOK 220506Z 2206/2312 19007KT 9999 FEW020 BECMG 2212/2214 35005KT BECMG 2221/2300 17005KT TEMPO 2306/2309 TS FEW020 FEW025CB SCT040

超过4000个机场的气象观测和天气预报(METAR&TAF报告)。

可查询的气象台以黄色和红色小点在地图上表示。

将鼠标移到小点上方,可查看气象台名称。

然后点击查看天气观测和预报。

如需切换地图:点击带黑十字的绿色按钮放大地图;点击带横线的绿色按钮缩小地图;或者点击绿色箭头查看邻近地区的地图。


METAR-TAF: